Time;durP1;ratioP1;P1;durP2;ratioP2;P2;SDS_P1;SDS_P2;PMS_P1;PMS_P2;Temp;Humidity;BMP_temperature;BMP_pressure;BME280_temperature;BME280_humidity;BME280_pressure;Samples;Min_cycle;Max_cycle;Signal;HPM_P1;HPM_P2
2022/12/21 00:01:42;;;;;;;16.37;13.30;;;12.90;99.90;;;;;;5061265;28;20354;-76
2022/12/21 00:04:09;;;;;;;15.33;13.37;;;12.90;99.90;;;;;;5077754;28;20202;-76
2022/12/21 00:06:38;;;;;;;16.87;13.47;;;12.90;99.90;;;;;;5076635;28;20233;-76
2022/12/21 00:09:11;;;;;;;18.57;14.13;;;12.90;99.90;;;;;;5075684;28;20343;-77
2022/12/21 00:11:38;;;;;;;19.23;14.30;;;12.90;99.90;;;;;;5055055;28;20819;-77
2022/12/21 00:14:06;;;;;;;20.10;14.47;;;12.90;99.90;;;;;;5069609;28;20186;-77
2022/12/21 00:16:37;;;;;;;18.40;14.20;;;12.90;99.90;;;;;;5069017;28;20187;-77
2022/12/21 00:19:05;;;;;;;15.40;13.53;;;12.90;99.90;;;;;;5072169;28;20847;-77
2022/12/21 00:21:36;;;;;;;17.10;14.47;;;12.90;99.90;;;;;;5082061;28;20246;-77
2022/12/21 00:24:04;;;;;;;16.67;13.27;;;12.90;99.90;;;;;;5071281;28;20191;-77
2022/12/21 00:26:38;;;;;;;20.60;13.87;;;12.90;99.90;;;;;;5060260;28;20215;-76
2022/12/21 00:29:05;;;;;;;18.50;14.87;;;12.90;99.90;;;;;;5054748;28;20712;-76
2022/12/21 00:31:39;;;;;;;18.57;14.27;;;12.90;99.90;;;;;;5088649;28;20190;-77
2022/12/21 00:34:05;;;;;;;19.10;14.10;;;12.90;99.90;;;;;;5048891;28;20206;-77
2022/12/21 00:36:32;;;;;;;17.73;14.67;;;12.80;99.90;;;;;;5053423;28;20187;-77
2022/12/21 00:38:59;;;;;;;20.83;15.50;;;12.80;99.90;;;;;;5057432;28;20195;-77
2022/12/21 00:41:28;;;;;;;16.37;12.97;;;12.80;99.90;;;;;;5058650;28;20194;-77
2022/12/21 00:43:57;;;;;;;16.90;14.33;;;12.80;99.90;;;;;;5066546;28;20200;-77
2022/12/21 00:46:25;;;;;;;15.93;13.67;;;12.80;99.90;;;;;;5065803;28;20285;-77
2022/12/21 00:48:52;;;;;;;17.93;13.90;;;12.80;99.90;;;;;;5067955;28;20190;-77
2022/12/21 00:51:22;;;;;;;18.77;14.20;;;12.80;99.90;;;;;;5063231;28;20187;-77
2022/12/21 00:53:49;;;;;;;20.67;14.10;;;12.80;99.90;;;;;;5066575;28;20209;-77
2022/12/21 00:56:16;;;;;;;17.97;13.67;;;12.80;99.90;;;;;;5064773;28;20718;-77
2022/12/21 00:58:43;;;;;;;20.03;13.63;;;12.80;99.90;;;;;;5067448;28;20190;-77
2022/12/21 01:01:22;;;;;;;20.00;15.40;;;12.80;99.90;;;;;;5057723;28;20186;-77
2022/12/21 01:03:50;;;;;;;18.10;14.20;;;12.80;99.90;;;;;;5067763;28;20202;-77
2022/12/21 01:06:20;;;;;;;19.00;13.47;;;12.80;99.90;;;;;;5062106;28;20278;-77
2022/12/21 01:08:47;;;;;;;22.43;14.63;;;12.80;99.90;;;;;;5067693;28;20254;-76
2022/12/21 01:11:17;;;;;;;17.23;14.63;;;12.80;99.90;;;;;;5073512;28;20184;-77
2022/12/21 01:13:44;;;;;;;18.47;12.53;;;12.80;99.90;;;;;;5071948;28;20555;-77
2022/12/21 01:16:21;;;;;;;20.10;14.60;;;12.80;99.90;;;;;;5066949;28;20267;-77
2022/12/21 01:18:48;;;;;;;18.57;13.63;;;12.80;99.90;;;;;;5067595;28;20182;-76
2022/12/21 01:21:25;;;;;;;17.53;13.67;;;12.80;99.90;;;;;;5047012;28;20619;-77
2022/12/21 01:23:53;;;;;;;15.33;13.67;;;12.80;99.90;;;;;;5065948;28;20877;-77
2022/12/21 01:26:21;;;;;;;16.00;14.03;;;12.70;99.90;;;;;;5065652;28;20189;-77
2022/12/21 01:28:47;;;;;;;17.83;13.33;;;12.70;99.90;;;;;;5053573;28;20175;-77
2022/12/21 01:31:14;;;;;;;18.03;13.93;;;12.70;99.90;;;;;;5069865;28;20190;-77
2022/12/21 01:33:41;;;;;;;18.80;14.13;;;12.70;99.90;;;;;;5053608;28;20264;-77
2022/12/21 01:36:11;;;;;;;19.30;13.73;;;12.70;99.90;;;;;;5054427;28;20247;-77
2022/12/21 01:38:41;;;;;;;21.03;14.07;;;12.70;99.90;;;;;;5058020;28;20229;-77
2022/12/21 01:41:19;;;;;;;17.60;13.73;;;12.70;99.90;;;;;;5079901;28;20188;-77
2022/12/21 01:43:51;;;;;;;17.80;13.43;;;12.70;99.90;;;;;;5072424;28;20265;-77
2022/12/21 01:46:55;;;;;;;18.67;14.27;;;12.70;99.90;;;;;;5086295;28;20213;-77
2022/12/21 01:49:29;;;;;;;18.50;14.87;;;12.70;99.90;;;;;;5053584;28;20187;-77
2022/12/21 01:52:11;;;;;;;17.93;13.17;;;12.70;99.90;;;;;;5060986;28;20247;-77
2022/12/21 01:54:47;;;;;;;18.17;14.10;;;12.70;99.90;;;;;;5086888;28;20193;-76
2022/12/21 01:57:17;;;;;;;16.80;13.40;;;12.70;99.90;;;;;;5075818;28;20629;-77
2022/12/21 01:59:56;;;;;;;17.50;13.97;;;12.70;99.90;;;;;;5072722;28;20232;-77
2022/12/21 02:02:35;;;;;;;19.63;14.80;;;12.80;99.90;;;;;;5055293;28;20561;-77
2022/12/21 02:05:47;;;;;;;23.07;15.47;;;12.70;99.90;;;;;;5075655;28;20526;-77
2022/12/21 02:08:14;;;;;;;21.83;15.50;;;12.70;99.90;;;;;;5042447;28;20310;-76
2022/12/21 02:10:41;;;;;;;18.97;15.00;;;12.70;99.90;;;;;;5072369;28;20221;-77
2022/12/21 02:13:13;;;;;;;19.43;15.07;;;12.60;99.90;;;;;;5052962;28;20187;-77
2022/12/21 02:15:59;;;;;;;20.30;14.87;;;12.60;99.90;;;;;;5060005;28;20656;-77
2022/12/21 02:18:44;;;;;;;22.40;15.80;;;12.70;99.90;;;;;;5053750;28;20644;-77
2022/12/21 02:21:32;;;;;;;20.33;15.63;;;12.70;99.90;;;;;;5056493;28;20179;-77
2022/12/21 02:24:35;;;;;;;17.77;14.23;;;12.70;99.90;;;;;;5085413;28;20611;-77
2022/12/21 02:27:46;;;;;;;18.43;14.47;;;12.70;99.90;;;;;;5074208;28;20240;-77
2022/12/21 02:30:21;;;;;;;19.80;14.17;;;12.70;99.90;;;;;;5066166;28;20198;-79
2022/12/21 02:33:38;;;;;;;22.73;14.50;;;12.70;99.90;;;;;;5071953;28;20193;-79
2022/12/21 02:36:25;;;;;;;23.53;13.53;;;12.70;99.90;;;;;;5066683;28;20198;-79
2022/12/21 02:39:15;;;;;;;17.90;12.73;;;12.70;99.90;;;;;;5071375;28;20188;-79
2022/12/21 02:41:55;;;;;;;16.50;13.67;;;12.70;99.90;;;;;;5050927;28;20209;-77
2022/12/21 02:44:51;;;;;;;17.10;12.90;;;12.70;99.90;;;;;;5052852;28;20182;-77
2022/12/21 02:47:50;;;;;;;18.23;13.47;;;12.70;99.90;;;;;;5077481;28;20305;-77
2022/12/21 02:50:33;;;;;;;20.17;14.00;;;12.70;99.90;;;;;;5073497;28;20189;-77
2022/12/21 02:53:22;;;;;;;17.93;13.53;;;12.70;99.90;;;;;;5082489;28;20670;-77
2022/12/21 02:55:48;;;;;;;19.63;14.30;;;12.70;99.90;;;;;;5042141;28;20551;-78
2022/12/21 02:58:22;;;;;;;17.13;13.73;;;12.70;99.90;;;;;;5050912;28;20186;-77
2022/12/21 03:00:54;;;;;;;17.40;13.80;;;12.70;99.90;;;;;;5070153;28;20309;-77
2022/12/21 03:04:05;;;;;;;19.03;12.97;;;12.70;99.90;;;;;;5070967;28;20654;-78
2022/12/21 03:06:59;;;;;;;18.10;13.37;;;12.70;99.90;;;;;;5049530;28;20253;-77
2022/12/21 03:09:40;;;;;;;19.33;14.90;;;12.70;99.90;;;;;;5054124;28;20636;-77
2022/12/21 03:12:20;;;;;;;20.57;15.10;;;12.70;99.90;;;;;;5069850;28;20605;-77
2022/12/21 03:14:59;;;;;;;20.97;15.60;;;12.70;99.90;;;;;;5053418;28;20560;-77
2022/12/21 03:18:19;;;;;;;19.97;15.10;;;12.70;99.90;;;;;;5070978;28;20190;-78
2022/12/21 03:21:02;;;;;;;21.33;15.93;;;12.60;99.90;;;;;;5052602;28;20208;-77
2022/12/21 03:23:36;;;;;;;18.40;14.83;;;12.60;99.90;;;;;;5065952;28;20211;-77
2022/12/21 03:26:28;;;;;;;18.73;14.63;;;12.70;99.90;;;;;;5050684;28;20240;-78
2022/12/21 03:28:59;;;;;;;19.50;15.67;;;12.70;99.90;;;;;;5051221;28;20682;-77
2022/12/21 03:31:34;;;;;;;20.37;15.70;;;12.70;99.90;;;;;;5086489;28;20175;-77
2022/12/21 03:34:23;;;;;;;20.37;15.33;;;12.70;99.90;;;;;;5070340;28;20659;-77
2022/12/21 03:37:04;;;;;;;20.53;15.27;;;12.70;99.90;;;;;;5066572;28;20179;-77
2022/12/21 03:39:38;;;;;;;21.80;15.93;;;12.70;99.90;;;;;;5071829;28;20236;-77
2022/12/21 03:42:33;;;;;;;17.87;15.43;;;12.70;99.90;;;;;;5050873;28;20268;-77
2022/12/21 03:45:11;;;;;;;17.13;14.13;;;12.70;99.90;;;;;;5048816;28;20588;-77
2022/12/21 03:48:26;;;;;;;18.17;13.93;;;12.70;99.90;;;;;;5048849;28;20245;-77
2022/12/21 03:51:04;;;;;;;20.63;14.47;;;12.70;99.90;;;;;;5069599;28;20217;-77
2022/12/21 03:53:52;;;;;;;19.23;14.20;;;12.70;99.90;;;;;;5047041;28;20186;-77
2022/12/21 03:56:30;;;;;;;19.37;15.27;;;12.70;99.90;;;;;;5055172;28;20523;-77
2022/12/21 03:58:58;;;;;;;17.67;14.50;;;12.70;99.90;;;;;;5069886;28;20666;-77
2022/12/21 04:02:08;;;;;;;19.17;14.47;;;12.70;99.90;;;;;;5068841;28;20191;-77
2022/12/21 04:04:48;;;;;;;17.90;14.97;;;12.70;99.90;;;;;;5085713;28;20182;-77
2022/12/21 04:07:23;;;;;;;17.70;14.30;;;12.70;99.90;;;;;;5090427;28;20687;-77
2022/12/21 04:09:58;;;;;;;18.20;14.53;;;12.70;99.90;;;;;;5082686;28;20181;-76
2022/12/21 04:12:38;;;;;;;17.97;14.03;;;12.70;99.90;;;;;;5073320;28;20178;-77
2022/12/21 04:15:19;;;;;;;16.83;14.00;;;12.70;99.90;;;;;;5034221;28;20208;-77
2022/12/21 04:17:50;;;;;;;17.23;13.00;;;12.70;99.90;;;;;;5076931;28;20619;-77
2022/12/21 04:20:24;;;;;;;16.13;13.23;;;12.70;99.90;;;;;;5073723;28;20183;-77
2022/12/21 04:28:24;;;;;;;20.60;15.50;;;12.80;99.90;;;;;;5060050;28;20194;-78
2022/12/21 04:30:51;;;;;;;17.03;13.87;;;12.70;99.90;;;;;;5047693;28;20292;-77
2022/12/21 04:33:21;;;;;;;20.30;15.07;;;12.70;99.90;;;;;;5057983;28;20187;-78
2022/12/21 04:38:41;;;;;;;21.97;15.10;;;12.80;99.90;;;;;;5067758;28;20179;-77
2022/12/21 04:41:08;;;;;;;21.53;15.33;;;12.70;99.90;;;;;;5083264;28;20682;-77
2022/12/21 04:43:40;;;;;;;19.30;15.73;;;12.70;99.90;;;;;;5072162;28;20644;-77
2022/12/21 04:46:13;;;;;;;17.67;14.60;;;12.70;99.90;;;;;;5066805;28;20780;-78
2022/12/21 04:48:41;;;;;;;23.30;14.77;;;12.70;99.90;;;;;;5061729;28;20678;-77
2022/12/21 04:51:18;;;;;;;18.90;14.43;;;12.70;99.90;;;;;;5078418;28;20203;-77
2022/12/21 04:53:45;;;;;;;18.67;14.13;;;12.70;99.90;;;;;;5081087;28;20547;-77
2022/12/21 04:56:12;;;;;;;18.97;14.67;;;12.70;99.90;;;;;;5059106;28;20268;-77
2022/12/21 04:58:40;;;;;;;21.13;14.23;;;12.70;99.90;;;;;;5071562;28;20229;-77
2022/12/21 05:01:15;;;;;;;19.53;14.13;;;12.70;99.90;;;;;;5065104;28;20175;-77
2022/12/21 05:03:42;;;;;;;18.57;14.57;;;12.70;99.90;;;;;;5063843;28;20178;-77
2022/12/21 05:06:11;;;;;;;17.90;14.50;;;12.70;99.90;;;;;;5068794;28;20183;-77
2022/12/21 05:08:38;;;;;;;16.20;14.43;;;12.70;99.90;;;;;;5065487;28;20188;-77
2022/12/21 05:11:19;;;;;;;17.67;14.10;;;12.70;99.90;;;;;;5051399;28;20273;-77
2022/12/21 05:13:46;;;;;;;15.70;12.80;;;12.70;99.90;;;;;;5068604;28;20248;-77
2022/12/21 05:16:20;;;;;;;16.07;12.70;;;12.70;99.90;;;;;;5067221;28;20201;-77
2022/12/21 05:18:48;;;;;;;18.77;13.13;;;12.70;99.90;;;;;;5050473;28;20229;-77
2022/12/21 05:21:16;;;;;;;20.83;14.80;;;12.70;99.90;;;;;;5066333;28;20212;-78
2022/12/21 05:23:43;;;;;;;20.90;14.87;;;12.70;99.90;;;;;;5065768;28;20205;-77
2022/12/21 05:26:11;;;;;;;19.73;14.57;;;12.70;99.90;;;;;;5071161;28;20680;-77
2022/12/21 05:28:38;;;;;;;22.40;16.60;;;12.70;99.90;;;;;;5058531;28;20289;-78
2022/12/21 05:31:08;;;;;;;21.33;15.80;;;12.60;99.90;;;;;;5066508;28;20546;-77
2022/12/21 05:33:34;;;;;;;24.07;17.63;;;12.60;99.90;;;;;;5050193;28;20189;-77
2022/12/21 05:36:09;;;;;;;21.23;16.27;;;12.60;99.90;;;;;;5083387;28;20310;-77
2022/12/21 05:38:36;;;;;;;24.97;16.87;;;12.60;99.90;;;;;;5082808;28;20197;-77
2022/12/21 05:41:03;;;;;;;22.13;17.17;;;12.60;99.90;;;;;;5072064;28;20203;-77
2022/12/21 05:43:30;;;;;;;22.37;17.07;;;12.60;99.90;;;;;;5055555;28;20282;-77
2022/12/21 05:46:04;;;;;;;21.73;15.50;;;12.50;99.90;;;;;;5065187;28;20882;-77
2022/12/21 05:48:31;;;;;;;20.93;16.20;;;12.50;99.90;;;;;;5048253;28;20227;-77
2022/12/21 05:50:59;;;;;;;24.53;16.87;;;12.50;99.90;;;;;;5082072;28;20206;-77
2022/12/21 05:53:25;;;;;;;21.40;17.13;;;12.50;99.90;;;;;;5043869;28;20217;-78
2022/12/21 05:55:51;;;;;;;19.23;15.53;;;12.50;99.90;;;;;;5054194;28;20281;-77
2022/12/21 05:58:19;;;;;;;19.70;15.00;;;12.60;99.90;;;;;;5061728;28;20195;-77
2022/12/21 06:00:45;;;;;;;17.57;14.17;;;12.60;99.90;;;;;;5074829;28;20213;-77
2022/12/21 06:03:12;;;;;;;16.47;13.80;;;12.50;99.90;;;;;;5077052;28;20195;-77
2022/12/21 06:05:38;;;;;;;17.80;14.33;;;12.60;99.90;;;;;;5075168;28;20707;-77
2022/12/21 06:08:05;;;;;;;22.13;14.40;;;12.50;99.90;;;;;;5067745;28;20229;-77
2022/12/21 06:10:31;;;;;;;18.73;12.90;;;12.50;99.90;;;;;;5067255;28;20635;-78
2022/12/21 06:12:59;;;;;;;15.90;12.60;;;12.40;99.90;;;;;;5055612;28;20254;-78
2022/12/21 06:15:26;;;;;;;17.67;12.63;;;12.50;99.90;;;;;;5049968;28;20189;-78
2022/12/21 06:17:55;;;;;;;15.90;12.40;;;12.50;99.90;;;;;;5066825;28;20178;-78
2022/12/21 06:20:22;;;;;;;14.47;11.73;;;12.50;99.90;;;;;;5081764;28;20675;-77
2022/12/21 06:22:48;;;;;;;16.17;11.67;;;12.50;99.90;;;;;;5081294;28;20258;-78
2022/12/21 06:25:14;;;;;;;15.53;12.03;;;12.50;99.90;;;;;;5049789;28;20190;-78
2022/12/21 06:27:41;;;;;;;15.97;12.07;;;12.40;99.90;;;;;;5068342;28;20260;-78
2022/12/21 06:30:09;;;;;;;17.10;11.13;;;12.40;99.90;;;;;;5069429;28;20273;-77
2022/12/21 06:32:36;;;;;;;16.27;11.17;;;12.50;99.90;;;;;;5087743;28;20195;-77
2022/12/21 06:35:05;;;;;;;17.90;11.37;;;12.50;99.90;;;;;;5069891;28;20274;-77
2022/12/21 06:37:32;;;;;;;11.70;10.30;;;12.50;99.90;;;;;;5077922;28;20710;-77
2022/12/21 06:39:59;;;;;;;18.33;11.20;;;12.50;99.90;;;;;;5061977;28;20198;-78
2022/12/21 06:42:25;;;;;;;13.73;9.97;;;12.50;99.90;;;;;;5055983;28;20237;-77
2022/12/21 06:44:51;;;;;;;12.47;9.43;;;12.20;99.90;;;;;;5064919;28;20274;-77
2022/12/21 06:47:18;;;;;;;12.80;10.03;;;12.20;99.90;;;;;;5029592;28;20219;-78
2022/12/21 06:49:45;;;;;;;14.43;9.70;;;12.30;99.90;;;;;;5043891;28;20257;-78
2022/12/21 06:52:11;;;;;;;12.00;9.83;;;12.30;99.90;;;;;;5049614;28;20195;-77
2022/12/21 06:54:37;;;;;;;14.60;10.97;;;12.40;99.90;;;;;;5045043;28;20539;-78
2022/12/21 06:57:04;;;;;;;21.33;13.20;;;12.40;99.90;;;;;;5047811;28;20180;-77
2022/12/21 06:59:35;;;;;;;17.53;12.97;;;12.30;99.90;;;;;;5050462;28;20202;-78
2022/12/21 07:02:03;;;;;;;17.77;12.80;;;12.20;99.90;;;;;;5086227;28;20199;-78
2022/12/21 07:04:29;;;;;;;16.07;11.80;;;12.20;99.90;;;;;;5047649;28;20197;-77
2022/12/21 07:06:55;;;;;;;20.87;11.10;;;12.20;99.90;;;;;;5078120;28;20875;-77
2022/12/21 07:09:22;;;;;;;18.10;10.57;;;12.20;99.90;;;;;;5085388;28;20632;-78
2022/12/21 07:11:51;;;;;;;11.63;9.97;;;12.20;99.90;;;;;;5057433;28;20269;-77
2022/12/21 07:14:18;;;;;;;11.50;9.17;;;12.20;99.90;;;;;;5068397;28;20195;-77
2022/12/21 07:16:45;;;;;;;14.37;10.50;;;12.20;99.90;;;;;;5049923;28;20197;-78
2022/12/21 07:19:11;;;;;;;15.40;11.33;;;12.10;99.90;;;;;;5053711;28;20772;-77
2022/12/21 07:21:38;;;;;;;22.47;12.50;;;12.10;99.90;;;;;;5088043;28;20559;-78
2022/12/21 07:24:06;;;;;;;15.27;11.27;;;12.10;99.90;;;;;;5070620;28;20213;-78
2022/12/21 07:26:32;;;;;;;18.47;11.87;;;12.10;99.90;;;;;;5066722;28;20237;-78
2022/12/21 07:28:59;;;;;;;17.07;12.33;;;12.10;99.90;;;;;;5052704;28;20194;-78
2022/12/21 07:31:27;;;;;;;13.53;11.00;;;12.20;99.90;;;;;;5071150;28;20179;-78
2022/12/21 07:33:54;;;;;;;15.43;10.27;;;12.20;99.90;;;;;;5069465;28;20593;-78
2022/12/21 07:36:20;;;;;;;11.73;9.80;;;12.30;99.90;;;;;;5069393;28;20566;-78
2022/12/21 07:38:48;;;;;;;15.30;9.70;;;12.30;99.90;;;;;;5069457;28;20818;-78
2022/12/21 07:41:16;;;;;;;11.93;9.50;;;12.20;99.90;;;;;;5068652;28;20566;-78
2022/12/21 07:43:43;;;;;;;12.57;9.80;;;12.30;99.90;;;;;;5067839;28;20187;-78
2022/12/21 07:46:11;;;;;;;10.50;8.77;;;12.30;99.90;;;;;;5063879;28;20282;-78
2022/12/21 07:48:38;;;;;;;11.00;8.30;;;12.30;99.90;;;;;;5047637;28;20607;-78
2022/12/21 07:51:06;;;;;;;16.20;9.27;;;12.40;99.90;;;;;;5069370;28;20651;-78
2022/12/21 07:53:33;;;;;;;11.40;9.50;;;12.30;99.90;;;;;;5069241;28;20297;-78
2022/12/21 07:56:10;;;;;;;16.43;8.83;;;12.30;99.90;;;;;;5085462;28;20320;-78
2022/12/21 07:58:36;;;;;;;14.57;9.57;;;12.40;99.90;;;;;;5068405;28;20675;-78
2022/12/21 08:01:06;;;;;;;15.23;8.33;;;12.40;99.90;;;;;;5069455;28;20194;-78
2022/12/21 08:03:34;;;;;;;12.53;8.50;;;12.40;99.90;;;;;;5063794;28;20187;-78
2022/12/21 08:06:00;;;;;;;10.63;9.13;;;12.50;99.90;;;;;;5050031;28;20198;-78
2022/12/21 08:08:27;;;;;;;10.93;9.33;;;12.40;99.90;;;;;;5085375;28;20222;-78
2022/12/21 08:10:55;;;;;;;14.63;9.40;;;12.50;99.90;;;;;;5052308;28;20254;-78
2022/12/21 08:13:21;;;;;;;15.17;10.53;;;12.40;99.90;;;;;;5067110;28;20182;-78
2022/12/21 08:15:47;;;;;;;13.63;10.40;;;12.40;99.90;;;;;;5066986;28;20179;-78
2022/12/21 08:18:14;;;;;;;12.90;10.63;;;12.40;99.90;;;;;;5085194;28;20659;-78
2022/12/21 08:20:44;;;;;;;13.63;10.40;;;12.40;99.90;;;;;;5057774;28;20525;-78
2022/12/21 08:23:11;;;;;;;14.70;8.70;;;12.40;99.90;;;;;;5051948;28;20190;-78
2022/12/21 08:25:37;;;;;;;12.57;9.00;;;12.40;99.90;;;;;;5085253;28;20194;-78
2022/12/21 08:28:03;;;;;;;11.83;8.43;;;12.40;99.90;;;;;;5051502;28;20225;-78
2022/12/21 08:30:30;;;;;;;13.80;8.50;;;12.30;99.90;;;;;;5066003;28;20199;-78
2022/12/21 08:32:57;;;;;;;14.23;8.03;;;12.30;99.90;;;;;;5065103;28;20186;-77
2022/12/21 08:35:23;;;;;;;13.83;7.77;;;12.20;99.90;;;;;;5082644;28;20282;-78
2022/12/21 08:37:52;;;;;;;10.87;6.77;;;12.20;99.90;;;;;;5045513;28;20203;-77
2022/12/21 08:40:19;;;;;;;10.77;6.27;;;12.20;99.90;;;;;;5062586;28;20704;-78
2022/12/21 08:42:46;;;;;;;11.87;7.07;;;12.20;99.90;;;;;;5065310;28;20908;-78
2022/12/21 08:45:12;;;;;;;10.87;7.00;;;12.20;99.90;;;;;;5050791;28;20328;-77
2022/12/21 08:47:40;;;;;;;8.60;6.13;;;12.30;99.90;;;;;;5052456;28;20582;-78
2022/12/21 08:50:07;;;;;;;9.87;6.80;;;12.20;99.90;;;;;;5068844;28;20525;-78
2022/12/21 08:52:33;;;;;;;13.00;6.73;;;12.20;99.90;;;;;;5051676;28;20191;-77
2022/12/21 08:54:59;;;;;;;7.00;5.50;;;12.20;99.90;;;;;;5095107;28;20281;-78
2022/12/21 08:57:26;;;;;;;8.73;5.67;;;12.20;99.90;;;;;;5092382;28;20186;-78
2022/12/21 08:59:52;;;;;;;8.13;5.80;;;12.20;99.90;;;;;;5093673;28;20190;-78
2022/12/21 09:02:18;;;;;;;11.07;5.53;;;12.20;99.90;;;;;;5060263;28;20198;-78
2022/12/21 09:04:45;;;;;;;11.07;5.50;;;12.10;99.90;;;;;;5054073;28;20659;-78
2022/12/21 09:07:11;;;;;;;8.17;5.57;;;12.10;99.90;;;;;;5060248;28;20214;-78
2022/12/21 09:09:37;;;;;;;10.57;5.90;;;12.10;99.90;;;;;;5063764;28;20186;-78
2022/12/21 09:12:05;;;;;;;9.70;5.90;;;12.10;99.90;;;;;;5070759;28;20197;-78
2022/12/21 09:14:31;;;;;;;12.30;7.70;;;12.20;99.90;;;;;;5072977;28;20201;-78
2022/12/21 09:16:58;;;;;;;11.93;7.80;;;12.30;99.90;;;;;;5070312;28;20192;-77
2022/12/21 09:19:25;;;;;;;14.30;8.57;;;12.40;99.90;;;;;;5062232;28;20182;-78
2022/12/21 09:21:51;;;;;;;15.27;8.70;;;12.40;99.90;;;;;;5092622;28;20567;-78
2022/12/21 09:24:18;;;;;;;11.10;8.00;;;12.40;99.90;;;;;;5080992;28;20201;-78
2022/12/21 09:26:44;;;;;;;10.83;8.00;;;12.40;99.90;;;;;;5068942;28;20236;-78
2022/12/21 09:29:11;;;;;;;16.23;8.70;;;12.50;99.90;;;;;;5066330;28;20202;-78
2022/12/21 09:31:37;;;;;;;14.03;8.90;;;12.50;99.90;;;;;;5066519;28;20751;-78
2022/12/21 09:34:04;;;;;;;12.83;9.43;;;12.60;99.90;;;;;;5050595;28;20581;-78
2022/12/21 09:36:32;;;;;;;14.30;9.50;;;12.60;99.90;;;;;;5067381;28;20256;-78
2022/12/21 09:38:58;;;;;;;9.63;6.40;;;12.70;99.90;;;;;;5050242;28;20246;-78
2022/12/21 09:41:28;;;;;;;9.13;6.93;;;12.60;99.90;;;;;;5049689;28;20222;-78
2022/12/21 09:44:14;;;;;;;10.40;7.97;;;12.50;99.90;;;;;;5040636;28;20188;-78
2022/12/21 09:46:43;;;;;;;11.67;8.63;;;12.60;99.90;;;;;;5067811;28;20579;-78
2022/12/21 09:49:22;;;;;;;11.93;8.93;;;12.60;99.90;;;;;;5067575;28;20179;-78
2022/12/21 09:51:59;;;;;;;15.77;9.20;;;12.70;99.90;;;;;;5080471;28;20695;-78
2022/12/21 09:54:59;;;;;;;9.23;8.10;;;12.60;99.90;;;;;;5055988;28;20194;-78
2022/12/21 09:57:33;;;;;;;14.53;8.47;;;12.60;99.90;;;;;;5063585;28;20195;-78
2022/12/21 10:00:03;;;;;;;11.87;8.40;;;12.70;99.90;;;;;;5063865;28;20606;-78
2022/12/21 10:03:05;;;;;;;11.13;8.10;;;12.70;99.90;;;;;;5038630;28;20289;-78
2022/12/21 10:06:08;;;;;;;10.00;7.50;;;12.70;99.90;;;;;;5035773;28;20609;-78
2022/12/21 10:09:17;;;;;;;9.60;6.80;;;12.60;99.90;;;;;;5077467;28;20556;-78
2022/12/21 10:11:46;;;;;;;11.40;7.37;;;12.60;99.90;;;;;;5026127;28;20560;-77
2022/12/21 10:14:29;;;;;;;13.40;6.40;;;12.60;99.90;;;;;;5060022;28;20197;-77
2022/12/21 10:17:44;;;;;;;11.50;6.70;;;12.70;99.90;;;;;;5055342;28;20193;-77
2022/12/21 10:20:32;;;;;;;13.77;6.07;;;12.50;99.90;;;;;;5055078;28;20309;-77
2022/12/21 10:23:04;;;;;;;12.13;5.80;;;12.60;99.90;;;;;;5046266;28;20194;-77
2022/12/21 10:25:50;;;;;;;10.00;6.73;;;12.60;99.90;;;;;;5051514;28;20618;-77
2022/12/21 10:28:44;;;;;;;14.43;6.20;;;12.60;99.90;;;;;;5066813;28;20923;-77
2022/12/21 10:31:44;;;;;;;13.67;5.80;;;12.70;99.90;;;;;;5073109;28;20191;-77
2022/12/21 10:34:31;;;;;;;14.33;6.37;;;12.80;99.90;;;;;;5069836;28;20202;-77
2022/12/21 10:37:13;;;;;;;8.27;5.40;;;12.80;99.90;;;;;;5073763;28;20221;-77
2022/12/21 10:39:40;;;;;;;9.07;5.43;;;12.90;99.90;;;;;;5067273;28;20655;-77
2022/12/21 10:42:28;;;;;;;11.67;5.53;;;12.90;99.90;;;;;;5087315;28;20194;-77
2022/12/21 10:44:54;;;;;;;9.67;5.63;;;12.90;99.90;;;;;;5068453;28;20208;-77
2022/12/21 10:47:23;;;;;;;12.13;6.10;;;13.00;99.90;;;;;;5077284;28;20218;-77
2022/12/21 10:50:16;;;;;;;10.73;5.23;;;13.00;99.90;;;;;;5100784;28;20217;-77
2022/12/21 10:52:48;;;;;;;8.33;4.90;;;13.00;99.90;;;;;;5060491;28;20215;-77
2022/12/21 10:55:17;;;;;;;6.20;4.77;;;13.00;99.90;;;;;;5071385;28;20229;-77
2022/12/21 10:57:51;;;;;;;9.83;5.13;;;13.00;99.90;;;;;;5074042;28;20186;-77
2022/12/21 11:00:33;;;;;;;8.73;5.67;;;13.00;99.90;;;;;;5049364;28;20688;-77
2022/12/21 11:03:06;;;;;;;7.97;4.97;;;13.00;99.90;;;;;;5091473;28;20198;-77
2022/12/21 11:05:38;;;;;;;7.27;5.10;;;13.00;99.90;;;;;;5069005;28;20630;-77
2022/12/21 11:08:14;;;;;;;11.17;5.00;;;12.90;99.90;;;;;;5070760;28;20214;-77
2022/12/21 11:10:47;;;;;;;7.67;4.80;;;13.00;99.90;;;;;;5038230;28;20217;-77
2022/12/21 11:13:16;;;;;;;8.47;5.20;;;12.90;99.90;;;;;;5076794;28;20757;-77
2022/12/21 11:16:03;;;;;;;9.93;5.03;;;13.00;99.90;;;;;;5069986;28;20195;-78
2022/12/21 11:18:43;;;;;;;7.70;4.47;;;13.10;99.90;;;;;;5067405;28;20281;-78
2022/12/21 11:21:38;;;;;;;7.27;4.80;;;13.10;99.90;;;;;;5063268;28;20265;-78
2022/12/21 11:24:13;;;;;;;8.33;4.90;;;13.20;99.90;;;;;;5053912;28;20322;-77
2022/12/21 11:26:53;;;;;;;11.30;5.17;;;13.20;99.90;;;;;;5071427;28;20248;-78
2022/12/21 11:29:46;;;;;;;7.80;4.43;;;13.20;99.90;;;;;;5052957;28;20595;-78
2022/12/21 11:32:15;;;;;;;7.47;4.77;;;13.30;99.90;;;;;;5062856;28;20194;-78
2022/12/21 11:35:02;;;;;;;8.27;4.90;;;13.40;99.90;;;;;;5071665;28;20555;-78
2022/12/21 11:37:45;;;;;;;12.17;5.10;;;13.40;99.90;;;;;;5060405;28;20282;-78
2022/12/21 11:40:18;;;;;;;7.90;4.93;;;13.40;99.90;;;;;;5068611;28;20187;-78
2022/12/21 11:43:00;;;;;;;10.57;5.37;;;13.50;99.90;;;;;;5067840;28;20206;-78
2022/12/21 11:46:02;;;;;;;8.43;5.30;;;13.60;99.90;;;;;;5050328;28;20285;-78
2022/12/21 11:48:41;;;;;;;8.97;5.00;;;13.60;99.90;;;;;;5070707;28;20214;-78
2022/12/21 11:51:48;;;;;;;9.90;4.50;;;13.70;99.90;;;;;;5079406;28;20244;-78
2022/12/21 11:54:22;;;;;;;7.67;4.40;;;13.80;99.90;;;;;;5069952;28;20183;-78
2022/12/21 11:56:57;;;;;;;8.33;4.60;;;13.80;99.90;;;;;;5055111;28;20186;-78
2022/12/21 11:59:51;;;;;;;6.23;3.63;;;13.90;99.90;;;;;;5068487;28;20186;-78
2022/12/21 12:03:06;;;;;;;4.33;3.20;;;13.80;99.90;;;;;;5078428;28;20189;-78
2022/12/21 12:05:58;;;;;;;5.80;3.30;;;13.80;99.90;;;;;;5051138;28;20615;-78
2022/12/21 12:08:51;;;;;;;8.23;3.37;;;13.80;99.90;;;;;;5088602;28;20236;-77
2022/12/21 12:11:54;;;;;;;6.53;2.93;;;13.80;99.90;;;;;;5062433;28;20229;-78
2022/12/21 12:14:54;;;;;;;4.67;3.43;;;13.60;99.90;;;;;;5062489;28;20259;-78
2022/12/21 12:18:19;;;;;;;9.83;3.53;;;13.60;99.90;;;;;;5068540;28;20191;-77
2022/12/21 12:21:15;;;;;;;6.17;3.13;;;13.50;99.90;;;;;;5062819;28;20214;-77
2022/12/21 12:24:03;;;;;;;5.30;3.50;;;13.50;99.90;;;;;;5065210;28;20222;-78
2022/12/21 12:26:41;;;;;;;6.60;3.87;;;13.50;99.90;;;;;;5066329;28;20175;-78
2022/12/21 12:29:29;;;;;;;18.77;7.03;;;13.50;99.90;;;;;;5068420;28;20292;-77
2022/12/21 12:32:27;;;;;;;26.43;10.30;;;13.50;99.90;;;;;;5088362;28;20182;-77
2022/12/21 12:35:06;;;;;;;12.00;5.20;;;13.60;99.90;;;;;;5052965;28;20262;-77
2022/12/21 12:38:29;;;;;;;8.43;4.63;;;13.60;99.90;;;;;;5070455;28;20197;-77
2022/12/21 12:41:35;;;;;;;5.13;3.50;;;13.70;99.90;;;;;;5054720;28;20217;-77
2022/12/21 12:44:13;;;;;;;5.10;3.27;;;13.60;99.90;;;;;;5068127;28;20198;-77
2022/12/21 12:46:52;;;;;;;4.33;3.23;;;13.60;99.90;;;;;;5047168;28;20640;-77
2022/12/21 12:49:24;;;;;;;7.67;3.60;;;13.70;99.90;;;;;;5074925;28;20287;-77
2022/12/21 12:52:35;;;;;;;4.50;3.30;;;13.60;99.90;;;;;;5070869;28;20232;-77
2022/12/21 12:55:24;;;;;;;5.27;3.30;;;13.60;99.90;;;;;;5042893;28;20249;-77
2022/12/21 12:58:04;;;;;;;6.50;2.70;;;13.60;99.90;;;;;;5050574;28;20918;-77
2022/12/21 13:00:51;;;;;;;6.80;3.80;;;13.60;99.90;;;;;;5069234;28;20286;-77
2022/12/21 13:04:11;;;;;;;4.77;3.10;;;13.70;99.90;;;;;;5080546;28;20183;-77
2022/12/21 13:06:54;;;;;;;7.37;4.00;;;13.60;99.90;;;;;;5047465;28;20293;-76
2022/12/21 13:09:45;;;;;;;7.50;3.63;;;13.60;99.90;;;;;;5065914;28;20190;-77
2022/12/21 13:12:29;;;;;;;5.30;3.10;;;13.60;99.90;;;;;;5038294;28;20724;-77
2022/12/21 13:15:44;;;;;;;5.00;3.47;;;13.50;99.90;;;;;;5067063;28;20194;-77
2022/12/21 13:18:21;;;;;;;6.13;4.17;;;13.50;99.90;;;;;;5027340;28;20289;-77
2022/12/21 13:20:52;;;;;;;4.43;3.20;;;13.40;99.90;;;;;;5054239;28;20525;-77
2022/12/21 13:23:34;;;;;;;8.53;3.83;;;13.40;99.90;;;;;;5057907;28;20290;-77
2022/12/21 13:26:10;;;;;;;10.00;3.10;;;13.30;99.90;;;;;;5073421;28;20190;-77